Time;durP1;ratioP1;P1;durP2;ratioP2;P2;SDS_P1;SDS_P2;PMS_P1;PMS_P2;Temp;Humidity;BMP_temperature;BMP_pressure;BME280_temperature;BME280_humidity;BME280_pressure;Samples;Min_cycle;Max_cycle;Signal;HPM_P1;HPM_P2
2023/06/10 00:01:47;;;;;;;8.40;7.70;;;18.80;99.90;;;;;;5062283;28;20480;-73
2023/06/10 00:04:14;;;;;;;12.13;7.30;;;18.80;99.90;;;;;;5053952;28;20191;-73
2023/06/10 00:06:40;;;;;;;7.70;7.00;;;18.70;99.90;;;;;;5051521;28;20849;-75
2023/06/10 00:09:10;;;;;;;9.73;8.73;;;18.70;99.90;;;;;;5051470;28;20402;-74
2023/06/10 00:11:36;;;;;;;8.87;7.97;;;18.60;99.90;;;;;;5051649;28;21010;-73
2023/06/10 00:14:02;;;;;;;8.20;7.50;;;18.60;99.90;;;;;;5051326;28;20492;-75
2023/06/10 00:16:27;;;;;;;8.70;7.80;;;18.60;99.90;;;;;;5051516;28;20508;-73
2023/06/10 00:18:55;;;;;;;7.97;7.17;;;18.50;99.90;;;;;;5051542;28;20167;-74
2023/06/10 00:21:21;;;;;;;7.70;6.53;;;18.50;99.90;;;;;;5050307;28;20175;-75
2023/06/10 00:23:47;;;;;;;8.80;7.20;;;18.40;99.90;;;;;;5051350;28;20544;-73
2023/06/10 00:26:12;;;;;;;7.23;6.60;;;18.40;99.90;;;;;;5051268;28;20978;-73
2023/06/10 00:28:38;;;;;;;9.93;7.40;;;18.40;99.90;;;;;;5051435;28;20220;-74
2023/06/10 00:31:04;;;;;;;7.80;7.10;;;18.40;99.90;;;;;;5053861;28;20179;-75
2023/06/10 00:33:30;;;;;;;7.47;6.77;;;18.30;99.90;;;;;;5053956;28;20258;-73
2023/06/10 00:35:55;;;;;;;8.10;7.30;;;18.30;99.90;;;;;;5054773;28;20987;-74
2023/06/10 00:38:21;;;;;;;7.80;7.10;;;18.30;99.90;;;;;;5055332;28;20171;-75
2023/06/10 00:40:46;;;;;;;8.90;7.90;;;18.20;99.90;;;;;;5055432;28;20171;-75
2023/06/10 00:43:12;;;;;;;7.03;6.27;;;18.20;99.90;;;;;;5055259;28;20680;-75
2023/06/10 00:45:37;;;;;;;8.10;7.40;;;18.10;99.90;;;;;;5054720;28;20191;-73
2023/06/10 00:48:03;;;;;;;7.50;6.80;;;18.10;99.90;;;;;;5054951;28;20633;-74
2023/06/10 00:50:30;;;;;;;8.37;7.63;;;18.10;99.90;;;;;;5054936;28;20171;-73
2023/06/10 00:52:57;;;;;;;8.73;7.83;;;18.10;99.90;;;;;;5053489;28;20431;-73
2023/06/10 00:55:23;;;;;;;7.90;7.20;;;18.00;99.90;;;;;;5054354;28;20441;-72
2023/06/10 00:57:51;;;;;;;9.20;8.30;;;17.90;99.90;;;;;;5054729;28;20404;-73
2023/06/10 01:00:17;;;;;;;7.77;6.97;;;17.90;99.90;;;;;;5057410;28;20402;-74
2023/06/10 01:02:42;;;;;;;9.00;8.27;;;17.90;99.90;;;;;;5060401;28;20741;-74
2023/06/10 01:05:08;;;;;;;11.17;8.27;;;17.80;99.90;;;;;;5061240;28;20460;-75
2023/06/10 01:07:55;;;;;;;8.73;7.83;;;17.80;99.90;;;;;;5055024;28;20163;-75
2023/06/10 01:10:34;;;;;;;8.13;7.30;;;17.80;99.90;;;;;;5054535;28;20409;-74
2023/06/10 01:13:06;;;;;;;7.50;6.80;;;17.70;99.90;;;;;;5054523;28;20402;-73
2023/06/10 01:15:34;;;;;;;7.43;6.73;;;17.70;99.90;;;;;;5054109;28;20426;-74
2023/06/10 01:18:02;;;;;;;7.70;7.00;;;17.70;99.90;;;;;;5054325;28;20452;-74
2023/06/10 01:20:29;;;;;;;6.73;6.23;;;17.60;99.90;;;;;;5054361;28;20466;-75
2023/06/10 01:22:57;;;;;;;7.90;7.20;;;17.60;99.90;;;;;;5054189;28;20485;-73
2023/06/10 01:25:27;;;;;;;8.13;7.43;;;17.60;99.90;;;;;;5054190;28;21006;-73
2023/06/10 01:28:02;;;;;;;8.00;7.23;;;17.60;99.90;;;;;;5054180;28;20440;-74
2023/06/10 01:30:37;;;;;;;7.27;6.67;;;17.60;99.90;;;;;;5054141;28;20401;-73
2023/06/10 01:33:05;;;;;;;8.57;7.67;;;17.50;99.90;;;;;;5054172;28;20405;-74
2023/06/10 01:35:31;;;;;;;7.57;6.87;;;17.50;99.90;;;;;;5053738;28;20451;-74
2023/06/10 01:37:59;;;;;;;7.93;7.13;;;17.50;99.90;;;;;;5053971;28;20436;-75
2023/06/10 01:40:26;;;;;;;7.33;6.70;;;17.50;99.90;;;;;;5053970;28;20402;-75
2023/06/10 01:42:52;;;;;;;6.30;5.80;;;17.50;99.90;;;;;;5052406;28;20417;-75
2023/06/10 01:45:17;;;;;;;7.57;6.10;;;17.50;99.90;;;;;;5053589;28;20425;-75
2023/06/10 01:47:43;;;;;;;7.10;6.40;;;17.50;99.90;;;;;;5052551;28;20241;-75
2023/06/10 01:50:09;;;;;;;7.60;6.83;;;17.50;99.90;;;;;;5053876;28;20502;-75
2023/06/10 01:52:35;;;;;;;7.83;7.13;;;17.50;99.90;;;;;;5053644;28;20159;-74
2023/06/10 01:55:00;;;;;;;8.33;7.63;;;17.50;99.90;;;;;;5053331;28;20437;-75
2023/06/10 01:57:26;;;;;;;7.03;6.43;;;17.40;99.90;;;;;;5053563;28;20195;-73
2023/06/10 01:59:51;;;;;;;9.37;6.50;;;17.40;99.90;;;;;;5053568;28;20163;-75
2023/06/10 02:02:17;;;;;;;7.83;7.03;;;17.40;99.90;;;;;;5053616;28;20548;-74
2023/06/10 02:04:43;;;;;;;8.47;6.53;;;17.40;99.90;;;;;;5053047;28;20751;-73
2023/06/10 02:07:08;;;;;;;7.20;6.60;;;17.40;99.90;;;;;;5052138;28;20173;-73
2023/06/10 02:09:35;;;;;;;8.63;6.53;;;17.30;99.90;;;;;;5053390;28;20182;-75
2023/06/10 02:12:03;;;;;;;6.87;6.23;;;17.30;99.90;;;;;;5053336;28;20625;-75
2023/06/10 02:14:28;;;;;;;6.90;6.30;;;17.30;99.90;;;;;;5051713;28;20417;-73
2023/06/10 02:16:56;;;;;;;5.97;5.37;;;17.30;99.90;;;;;;5053242;28;20447;-75
2023/06/10 02:19:22;;;;;;;6.50;5.80;;;17.30;99.90;;;;;;5053223;28;20163;-74
2023/06/10 02:21:47;;;;;;;7.40;6.60;;;17.30;99.90;;;;;;5053206;28;20405;-75
2023/06/10 02:24:13;;;;;;;6.63;6.03;;;17.20;99.90;;;;;;5052762;28;20459;-75
2023/06/10 02:26:38;;;;;;;8.07;6.67;;;17.20;99.90;;;;;;5052862;28;20203;-74
2023/06/10 02:29:04;;;;;;;7.50;6.77;;;17.20;99.90;;;;;;5053020;28;20159;-74
2023/06/10 02:31:29;;;;;;;7.83;6.37;;;17.20;99.90;;;;;;5052944;28;20159;-74
2023/06/10 02:33:55;;;;;;;7.03;6.40;;;17.20;99.90;;;;;;5052974;28;20178;-74
2023/06/10 02:36:23;;;;;;;10.27;7.63;;;17.10;99.90;;;;;;5052546;28;20182;-74
2023/06/10 02:38:49;;;;;;;7.80;6.30;;;17.10;99.90;;;;;;5052837;28;20471;-73
2023/06/10 02:41:15;;;;;;;6.90;6.40;;;17.10;99.90;;;;;;5052683;28;20405;-75
2023/06/10 02:43:40;;;;;;;7.53;6.33;;;17.10;99.90;;;;;;5052748;28;20949;-75
2023/06/10 02:46:06;;;;;;;7.47;6.80;;;17.00;99.90;;;;;;5052387;28;20592;-74
2023/06/10 02:48:31;;;;;;;9.13;7.17;;;17.00;99.90;;;;;;5052722;28;20167;-75
2023/06/10 02:50:57;;;;;;;8.73;7.87;;;17.00;99.90;;;;;;5052586;28;20170;-74
2023/06/10 02:53:23;;;;;;;7.83;7.03;;;16.90;99.90;;;;;;5051953;28;20191;-74
2023/06/10 02:55:48;;;;;;;7.87;6.93;;;16.90;99.90;;;;;;5052197;28;20186;-74
2023/06/10 02:58:14;;;;;;;8.50;7.17;;;16.80;99.90;;;;;;5052471;28;20170;-74
2023/06/10 03:00:40;;;;;;;7.90;7.10;;;16.80;99.90;;;;;;5052434;28;20251;-75
2023/06/10 03:03:06;;;;;;;9.90;8.47;;;16.80;99.90;;;;;;5052470;28;20174;-74
2023/06/10 03:05:32;;;;;;;8.23;7.50;;;16.70;99.90;;;;;;5052014;28;20504;-74
2023/06/10 03:07:58;;;;;;;8.63;7.57;;;16.60;99.90;;;;;;5052288;28;20758;-73
2023/06/10 03:10:24;;;;;;;7.83;7.13;;;16.60;99.90;;;;;;5052283;28;20401;-74
2023/06/10 03:12:49;;;;;;;8.60;7.80;;;16.60;99.90;;;;;;5052302;28;20684;-74
2023/06/10 03:15:15;;;;;;;7.50;6.83;;;16.50;99.90;;;;;;5051864;28;20190;-74
2023/06/10 03:17:41;;;;;;;8.10;7.23;;;16.50;99.90;;;;;;5052185;28;20167;-73
2023/06/10 03:20:10;;;;;;;8.00;7.20;;;16.50;99.90;;;;;;5052097;28;20401;-74
2023/06/10 03:22:35;;;;;;;8.10;7.30;;;16.50;99.90;;;;;;5050776;28;20648;-73
2023/06/10 03:25:01;;;;;;;8.90;8.10;;;16.50;99.90;;;;;;5050276;28;20507;-74
2023/06/10 03:27:28;;;;;;;6.73;6.13;;;16.50;99.90;;;;;;5052058;28;20528;-73
2023/06/10 03:29:54;;;;;;;6.77;6.17;;;16.50;99.90;;;;;;5052002;28;20492;-74
2023/06/10 03:32:19;;;;;;;8.13;7.43;;;16.50;99.90;;;;;;5052014;28;20487;-74
2023/06/10 03:34:45;;;;;;;8.43;6.90;;;16.50;99.90;;;;;;5051564;28;20747;-74
2023/06/10 03:37:11;;;;;;;7.27;6.67;;;16.50;99.90;;;;;;5051834;28;20171;-74
2023/06/10 03:39:36;;;;;;;8.77;7.97;;;16.50;99.90;;;;;;5051902;28;20167;-74
2023/06/10 03:42:02;;;;;;;7.73;7.00;;;16.50;99.90;;;;;;5050596;28;20179;-74
2023/06/10 03:44:27;;;;;;;8.63;7.00;;;16.60;99.90;;;;;;5051444;28;20240;-74
2023/06/10 03:46:54;;;;;;;10.40;7.00;;;16.60;99.90;;;;;;5051795;28;20163;-73
2023/06/10 03:49:20;;;;;;;7.73;7.00;;;16.60;99.90;;;;;;5051717;28;20195;-74
2023/06/10 03:51:46;;;;;;;11.73;8.63;;;16.60;99.90;;;;;;5051618;28;20911;-74
2023/06/10 03:54:11;;;;;;;9.47;7.10;;;16.70;99.90;;;;;;5051246;28;20594;-74
2023/06/10 03:56:36;;;;;;;10.53;7.03;;;16.70;99.90;;;;;;5051610;28;20623;-74
2023/06/10 03:59:02;;;;;;;8.43;6.97;;;16.70;99.90;;;;;;5051725;28;20163;-74
2023/06/10 04:01:28;;;;;;;8.23;7.43;;;16.70;99.90;;;;;;5051630;28;20167;-74
2023/06/10 04:03:54;;;;;;;9.30;8.17;;;16.70;99.90;;;;;;5051488;28;20660;-73
2023/06/10 04:06:21;;;;;;;12.80;7.70;;;16.70;99.90;;;;;;5054229;28;20182;-74
2023/06/10 04:08:47;;;;;;;9.80;7.80;;;16.70;99.90;;;;;;5055623;28;20777;-74
2023/06/10 04:11:13;;;;;;;8.00;7.20;;;16.70;99.90;;;;;;5055594;28;20749;-74
2023/06/10 04:13:38;;;;;;;7.43;5.70;;;16.80;99.90;;;;;;5055595;28;20416;-74
2023/06/10 04:16:04;;;;;;;7.63;6.93;;;16.80;99.90;;;;;;5055175;28;20194;-74
2023/06/10 04:18:30;;;;;;;9.10;7.60;;;16.90;99.90;;;;;;5055454;28;20170;-74
2023/06/10 04:20:56;;;;;;;6.83;6.07;;;16.90;99.90;;;;;;5055423;28;20208;-74
2023/06/10 04:23:22;;;;;;;7.70;6.90;;;17.00;99.90;;;;;;5055289;28;20857;-74
2023/06/10 04:25:47;;;;;;;8.03;7.33;;;17.10;99.90;;;;;;5055048;28;20421;-73
2023/06/10 04:28:13;;;;;;;9.83;7.10;;;17.10;99.90;;;;;;5055297;28;20163;-74
2023/06/10 04:30:39;;;;;;;10.30;7.97;;;17.20;99.90;;;;;;5055351;28;20193;-73
2023/06/10 04:33:09;;;;;;;7.23;6.53;;;17.30;99.90;;;;;;5055166;28;20163;-74
2023/06/10 04:35:34;;;;;;;7.97;7.23;;;17.40;99.90;;;;;;5054842;28;20189;-74
2023/06/10 04:38:02;;;;;;;7.87;7.07;;;17.40;99.90;;;;;;5055092;28;20860;-74
2023/06/10 04:40:28;;;;;;;8.13;7.33;;;17.50;99.90;;;;;;5053822;28;20565;-74
2023/06/10 04:42:53;;;;;;;7.53;6.80;;;17.60;99.90;;;;;;5054991;28;20423;-74
2023/06/10 04:45:19;;;;;;;7.90;7.10;;;17.70;99.90;;;;;;5054591;28;20198;-74
2023/06/10 04:47:44;;;;;;;8.00;7.20;;;17.80;99.90;;;;;;5053578;28;20171;-74
2023/06/10 04:50:10;;;;;;;8.50;7.00;;;17.90;99.90;;;;;;5054940;28;20167;-74
2023/06/10 04:52:35;;;;;;;7.37;6.67;;;17.90;99.90;;;;;;5054846;28;20167;-75
2023/06/10 04:55:01;;;;;;;6.83;6.10;;;18.00;99.90;;;;;;5054363;28;20237;-74
2023/06/10 04:57:26;;;;;;;10.33;6.57;;;18.10;99.90;;;;;;5054828;28;20246;-75
2023/06/10 04:59:52;;;;;;;6.60;6.00;;;18.30;99.90;;;;;;5053456;28;20254;-74
2023/06/10 05:02:18;;;;;;;10.67;6.43;;;18.40;99.90;;;;;;5054630;28;20216;-74
2023/06/10 05:04:43;;;;;;;7.23;6.53;;;18.50;99.90;;;;;;5054194;28;20448;-74
2023/06/10 05:07:09;;;;;;;8.40;7.00;;;18.70;99.90;;;;;;5053183;28;20571;-74
2023/06/10 05:09:34;;;;;;;8.43;7.40;;;18.80;99.90;;;;;;5054590;28;20587;-74
2023/06/10 05:12:00;;;;;;;9.37;6.83;;;19.00;99.90;;;;;;5054487;28;20167;-74
2023/06/10 05:14:26;;;;;;;8.37;7.00;;;19.20;99.90;;;;;;5052861;28;20273;-74
2023/06/10 05:16:51;;;;;;;8.57;7.03;;;19.30;99.90;;;;;;5053879;28;20637;-75
2023/06/10 05:19:20;;;;;;;8.20;7.23;;;19.50;99.90;;;;;;5054452;28;20589;-74
2023/06/10 05:21:45;;;;;;;7.37;6.67;;;19.70;99.90;;;;;;5054327;28;20174;-74
2023/06/10 05:24:11;;;;;;;9.73;6.73;;;19.90;99.90;;;;;;5054100;28;20448;-75
2023/06/10 05:26:37;;;;;;;8.23;6.77;;;20.10;99.90;;;;;;5054195;28;20194;-75
2023/06/10 05:29:08;;;;;;;6.50;5.90;;;20.30;99.90;;;;;;5054133;28;20551;-75
2023/06/10 05:31:33;;;;;;;7.80;7.00;;;20.50;99.90;;;;;;5054096;28;20409;-75
2023/06/10 05:33:59;;;;;;;7.83;7.10;;;20.60;99.90;;;;;;5053942;28;20417;-75
2023/06/10 05:36:27;;;;;;;8.30;7.17;;;20.80;99.90;;;;;;5053707;28;20186;-75
2023/06/10 05:38:53;;;;;;;6.20;5.70;;;21.00;99.90;;;;;;5052711;28;20189;-75
2023/06/10 05:41:18;;;;;;;9.10;6.40;;;21.10;99.90;;;;;;5053991;28;20409;-75
2023/06/10 05:43:44;;;;;;;7.27;6.63;;;21.20;99.90;;;;;;5053867;28;20203;-75
2023/06/10 05:46:10;;;;;;;8.40;7.57;;;21.40;99.90;;;;;;5053505;28;20189;-75
2023/06/10 05:48:35;;;;;;;8.90;8.00;;;21.50;99.90;;;;;;5053846;28;20612;-75
2023/06/10 05:51:01;;;;;;;8.90;7.00;;;21.70;99.90;;;;;;5053775;28;20170;-76
2023/06/10 05:53:26;;;;;;;9.10;6.57;;;21.70;99.90;;;;;;5053610;28;20187;-77
2023/06/10 05:55:53;;;;;;;8.30;7.60;;;21.80;99.90;;;;;;5053406;28;20199;-77
2023/06/10 05:58:20;;;;;;;8.33;6.33;;;21.90;99.90;;;;;;5053624;28;20633;-76
2023/06/10 06:00:45;;;;;;;6.80;6.17;;;22.10;99.90;;;;;;5053541;28;20500;-76
2023/06/10 06:03:11;;;;;;;10.03;7.00;;;22.60;99.90;;;;;;5053282;28;20567;-75
2023/06/10 06:05:38;;;;;;;6.93;6.33;;;23.20;99.90;;;;;;5053108;28;20185;-76
2023/06/10 06:08:04;;;;;;;7.90;7.10;;;23.90;99.90;;;;;;5052116;28;20402;-76
2023/06/10 06:10:31;;;;;;;9.87;6.87;;;25.00;99.90;;;;;;5053409;28;20495;-76
2023/06/10 06:12:56;;;;;;;6.37;5.77;;;26.10;99.90;;;;;;5053363;28;20405;-75
2023/06/10 06:15:22;;;;;;;6.30;5.30;;;27.10;99.90;;;;;;5052910;28;20428;-70
2023/06/10 06:17:47;;;;;;;5.57;5.17;;;28.10;99.90;;;;;;5053271;28;20175;-67
2023/06/10 06:20:13;;;;;;;5.70;5.20;;;29.10;96.70;;;;;;5053157;28;20170;-68
2023/06/10 06:22:38;;;;;;;5.90;5.40;;;29.90;92.90;;;;;;5051913;28;20177;-68
2023/06/10 06:25:05;;;;;;;5.77;5.27;;;30.60;88.70;;;;;;5053476;28;20597;-68
2023/06/10 06:27:31;;;;;;;5.63;5.07;;;31.30;80.00;;;;;;5062912;28;20170;-68
2023/06/10 06:29:57;;;;;;;6.30;5.80;;;32.00;74.00;;;;;;5061826;28;20414;-68
2023/06/10 06:32:24;;;;;;;5.37;4.97;;;32.50;67.00;;;;;;5062453;28;20443;-68
2023/06/10 06:34:53;;;;;;;5.43;5.03;;;33.10;61.50;;;;;;5063018;28;20186;-68
2023/06/10 06:37:25;;;;;;;6.10;5.60;;;33.60;57.20;;;;;;5062081;28;20409;-69
2023/06/10 06:39:51;;;;;;;6.27;5.77;;;34.10;54.20;;;;;;5061182;28;20409;-69
2023/06/10 06:42:17;;;;;;;5.40;4.90;;;34.50;53.30;;;;;;5069788;28;20417;-68
2023/06/10 06:44:43;;;;;;;6.80;5.80;;;35.00;51.90;;;;;;5072204;28;20533;-69
2023/06/10 06:47:08;;;;;;;6.23;5.73;;;35.10;48.00;;;;;;5071353;28;20181;-68
2023/06/10 06:49:34;;;;;;;6.20;5.70;;;35.30;47.60;;;;;;5072616;28;20223;-69
2023/06/10 06:51:59;;;;;;;5.77;5.30;;;35.80;48.00;;;;;;5072637;28;20245;-68
2023/06/10 06:54:25;;;;;;;6.43;5.83;;;36.20;46.40;;;;;;5072124;28;20259;-68
2023/06/10 06:56:50;;;;;;;6.27;5.70;;;36.30;43.90;;;;;;5072514;28;20170;-68
2023/06/10 06:59:19;;;;;;;6.47;5.60;;;36.70;43.40;;;;;;5072377;28;20177;-68
2023/06/10 07:01:45;;;;;;;6.03;5.43;;;36.90;41.80;;;;;;5072438;28;20170;-69
2023/06/10 07:04:10;;;;;;;6.17;5.77;;;37.50;42.50;;;;;;5072143;28;20853;-69
2023/06/10 07:06:37;;;;;;;5.90;5.40;;;37.40;37.80;;;;;;5072279;28;20477;-67
2023/06/10 07:09:04;;;;;;;5.40;5.00;;;37.20;37.20;;;;;;5072377;28;20645;-72
2023/06/10 07:11:30;;;;;;;5.87;5.40;;;37.70;37.50;;;;;;5072331;28;21115;-72
2023/06/10 07:13:56;;;;;;;6.20;5.70;;;37.90;35.80;;;;;;5072213;28;20371;-73
2023/06/10 07:16:21;;;;;;;6.33;5.83;;;37.90;35.60;;;;;;5071875;28;20190;-72
2023/06/10 07:18:47;;;;;;;5.90;5.03;;;37.80;34.70;;;;;;5072183;28;20396;-72
2023/06/10 07:21:13;;;;;;;6.60;6.03;;;38.40;34.30;;;;;;5072130;28;20178;-72
2023/06/10 07:23:41;;;;;;;5.77;5.27;;;38.10;33.90;;;;;;5070737;28;20213;-75
2023/06/10 07:26:07;;;;;;;5.03;4.63;;;38.60;34.40;;;;;;5071768;28;20190;-74
2023/06/10 07:28:33;;;;;;;7.23;5.17;;;38.70;33.10;;;;;;5071964;28;20404;-73
2023/06/10 07:30:58;;;;;;;5.47;5.07;;;39.00;34.10;;;;;;5072034;28;20177;-74
2023/06/10 07:33:24;;;;;;;5.37;4.83;;;39.40;33.10;;;;;;5072005;28;20175;-73
2023/06/10 07:35:49;;;;;;;5.50;5.10;;;39.80;33.50;;;;;;5071754;28;20193;-73
2023/06/10 07:38:16;;;;;;;5.40;5.00;;;40.50;31.70;;;;;;5071971;28;20643;-74
2023/06/10 07:40:42;;;;;;;6.40;5.90;;;40.70;30.40;;;;;;5071657;28;20255;-73
2023/06/10 07:43:07;;;;;;;5.27;4.87;;;40.50;30.30;;;;;;5071569;28;20482;-74
2023/06/10 07:45:33;;;;;;;5.97;5.47;;;40.90;30.60;;;;;;5071519;28;20188;-73
2023/06/10 07:47:58;;;;;;;6.03;5.40;;;41.30;30.70;;;;;;5070321;28;20166;-74
2023/06/10 07:50:24;;;;;;;11.23;5.60;;;41.90;30.00;;;;;;5071399;28;20228;-73
2023/06/10 07:52:50;;;;;;;8.10;5.70;;;42.50;29.40;;;;;;5071759;28;20163;-73
2023/06/10 07:55:15;;;;;;;5.43;5.03;;;42.70;29.00;;;;;;5071311;28;20211;-74
2023/06/10 07:57:41;;;;;;;6.10;5.60;;;43.10;29.40;;;;;;5071665;28;20635;-74
2023/06/10 08:00:08;;;;;;;5.37;4.97;;;43.40;28.30;;;;;;5071698;28;20170;-73
2023/06/10 08:02:33;;;;;;;5.67;5.27;;;44.00;28.70;;;;;;5070409;28;20540;-74
2023/06/10 08:04:59;;;;;;;5.77;5.37;;;44.60;28.50;;;;;;5071410;28;20403;-74
2023/06/10 08:07:25;;;;;;;5.80;5.40;;;45.20;27.60;;;;;;5071632;28;20166;-74
2023/06/10 08:09:50;;;;;;;6.43;6.03;;;45.20;26.30;;;;;;5071675;28;20216;-74
2023/06/10 08:12:16;;;;;;;5.63;5.17;;;45.60;26.20;;;;;;5071532;28;20491;-74
2023/06/10 08:14:42;;;;;;;6.00;5.50;;;46.00;26.10;;;;;;5071105;28;20202;-74
2023/06/10 08:17:07;;;;;;;7.20;6.50;;;46.60;27.10;;;;;;5071581;28;20166;-74
2023/06/10 08:19:33;;;;;;;7.10;5.43;;;46.50;24.60;;;;;;5071502;28;20163;-74
2023/06/10 08:21:58;;;;;;;5.57;5.17;;;47.00;25.60;;;;;;5071512;28;20198;-74
2023/06/10 08:24:24;;;;;;;5.70;5.30;;;47.60;26.00;;;;;;5071173;28;20532;-74
2023/06/10 08:26:49;;;;;;;5.57;4.93;;;48.30;25.80;;;;;;5071433;28;20167;-74
2023/06/10 08:29:15;;;;;;;6.17;5.60;;;48.50;24.50;;;;;;5071329;28;20257;-74
2023/06/10 08:31:44;;;;;;;5.33;4.93;;;48.50;23.30;;;;;;5071454;28;20177;-74
2023/06/10 08:34:10;;;;;;;5.33;4.90;;;48.60;24.10;;;;;;5071118;28;20200;-74
2023/06/10 08:36:36;;;;;;;5.90;5.50;;;49.20;24.80;;;;;;5071248;28;20441;-74
2023/06/10 08:39:02;;;;;;;5.53;4.90;;;49.90;25.00;;;;;;5070050;28;20412;-75
2023/06/10 08:41:36;;;;;;;5.17;4.73;;;50.60;24.20;;;;;;5071146;28;20411;-74
2023/06/10 08:44:12;;;;;;;5.13;4.83;;;51.20;24.10;;;;;;5071143;28;20159;-75
2023/06/10 08:46:40;;;;;;;6.20;5.80;;;51.70;23.00;;;;;;5071179;28;20430;-74
2023/06/10 08:49:07;;;;;;;5.60;5.20;;;52.00;23.20;;;;;;5071312;28;20925;-74
2023/06/10 08:51:35;;;;;;;6.50;6.10;;;52.10;22.20;;;;;;5072688;28;20504;-74
2023/06/10 08:54:19;;;;;;;5.83;5.43;;;51.00;21.30;;;;;;5074445;28;20456;-74
2023/06/10 08:56:48;;;;;;;6.77;6.27;;;51.30;22.40;;;;;;5074686;28;20412;-74
2023/06/10 08:59:16;;;;;;;6.20;5.80;;;52.00;23.20;;;;;;5074712;28;20379;-74
2023/06/10 09:01:42;;;;;;;5.53;5.13;;;52.60;23.00;;;;;;5074745;28;20467;-74
2023/06/10 09:04:08;;;;;;;6.33;5.93;;;53.30;22.40;;;;;;5073077;28;20417;-74
2023/06/10 09:06:34;;;;;;;6.57;6.07;;;53.90;22.50;;;;;;5074400;28;20784;-74
2023/06/10 09:09:00;;;;;;;6.20;5.80;;;54.40;22.20;;;;;;5073365;28;20561;-75
2023/06/10 09:11:26;;;;;;;6.73;6.33;;;54.90;21.20;;;;;;5074302;28;20408;-74
2023/06/10 09:13:52;;;;;;;7.20;6.80;;;55.30;21.30;;;;;;5074306;28;20455;-75
2023/06/10 09:16:17;;;;;;;6.17;5.87;;;54.70;19.60;;;;;;5072795;28;20443;-75
2023/06/10 09:18:43;;;;;;;6.53;6.13;;;54.60;20.90;;;;;;5075979;28;20154;-75
2023/06/10 09:21:09;;;;;;;6.90;6.50;;;54.50;20.00;;;;;;5072968;28;20197;-74
2023/06/10 09:23:36;;;;;;;6.17;5.80;;;55.00;21.00;;;;;;5074492;28;20227;-75
2023/06/10 09:26:03;;;;;;;6.67;6.27;;;55.40;20.70;;;;;;5076027;28;20224;-75
2023/06/10 09:28:29;;;;;;;6.63;6.13;;;55.80;21.30;;;;;;5074874;28;20408;-75
2023/06/10 09:31:05;;;;;;;7.30;6.80;;;56.20;20.60;;;;;;5074107;28;20388;-77
2023/06/10 09:33:31;;;;;;;6.93;6.53;;;54.00;18.10;;;;;;5072785;28;20280;-74
2023/06/10 09:36:00;;;;;;;6.60;6.20;;;54.00;20.20;;;;;;5073820;28;20416;-74
2023/06/10 09:38:30;;;;;;;7.73;7.03;;;54.30;20.80;;;;;;5074022;28;20408;-75
2023/06/10 09:40:56;;;;;;;6.80;6.40;;;54.50;19.70;;;;;;5073878;28;20379;-75
2023/06/10 09:43:22;;;;;;;11.03;10.03;;;55.10;20.70;;;;;;5074005;28;20762;-74
2023/06/10 09:45:55;;;;;;;13.50;12.10;;;55.90;20.80;;;;;;5073375;28;20181;-74
2023/06/10 09:48:23;;;;;;;6.67;6.27;;;56.70;20.80;;;;;;5073762;28;20537;-70
2023/06/10 09:50:48;;;;;;;6.80;6.30;;;57.10;19.40;;;;;;5073898;28;20905;-70
2023/06/10 09:53:16;;;;;;;7.35;6.95;;;57.50;19.40;;;;;;5073811;28;20396;-73
2023/06/10 09:55:44;;;;;;;8.40;7.80;;;57.10;18.60;;;;;;5073634;28;20181;-69
2023/06/10 09:58:09;;;;;;;6.73;6.33;;;57.10;19.00;;;;;;5073884;28;20396;-70
2023/06/10 10:00:36;;;;;;;7.73;7.30;;;57.10;19.00;;;;;;5073871;28;20431;-70
2023/06/10 10:03:02;;;;;;;6.20;5.90;;;56.00;18.10;;;;;;5073883;28;20639;-69
2023/06/10 10:05:28;;;;;;;6.93;6.43;;;56.00;19.30;;;;;;5073122;28;20435;-69
2023/06/10 10:07:56;;;;;;;6.70;6.30;;;56.30;19.30;;;;;;5073504;28;20170;-70
2023/06/10 10:10:22;;;;;;;8.00;7.50;;;56.60;19.20;;;;;;5073379;28;20224;-69
2023/06/10 10:12:49;;;;;;;7.50;7.00;;;57.20;19.10;;;;;;5073273;28;20897;-70
2023/06/10 10:15:17;;;;;;;8.40;7.90;;;57.90;19.70;;;;;;5072724;28;20205;-71
2023/06/10 10:17:51;;;;;;;7.40;6.87;;;57.20;17.30;;;;;;5072062;28;20420;-69
2023/06/10 10:20:22;;;;;;;6.73;6.33;;;55.70;17.70;;;;;;5073396;28;20735;-69
2023/06/10 10:22:52;;;;;;;7.37;6.93;;;55.50;19.10;;;;;;5073233;28;20392;-70
2023/06/10 10:25:27;;;;;;;6.87;6.47;;;54.80;18.30;;;;;;5072901;28;21001;-69
2023/06/10 10:27:59;;;;;;;7.50;7.00;;;55.40;19.30;;;;;;5073070;28;20456;-69
2023/06/10 10:30:26;;;;;;;6.93;6.43;;;56.20;19.60;;;;;;5073040;28;20455;-69
2023/06/10 10:32:59;;;;;;;7.07;6.67;;;56.90;19.50;;;;;;5072950;28;20408;-69
2023/06/10 10:35:25;;;;;;;6.83;6.43;;;57.90;19.20;;;;;;5072571;28;20460;-70
2023/06/10 10:37:55;;;;;;;8.90;8.40;;;58.60;18.80;;;;;;5071458;28;20427;-71
2023/06/10 10:40:22;;;;;;;7.57;7.17;;;59.00;17.90;;;;;;5072791;28;20408;-69
2023/06/10 10:42:49;;;;;;;8.93;7.80;;;58.40;17.40;;;;;;5072823;28;20482;-69
2023/06/10 10:45:15;;;;;;;6.53;6.23;;;58.10;18.10;;;;;;5072460;28;20431;-69
2023/06/10 10:47:42;;;;;;;7.10;6.80;;;58.40;17.70;;;;;;5072580;28;20412;-69
2023/06/10 10:50:19;;;;;;;7.57;6.97;;;58.70;17.70;;;;;;5072687;28;20166;-70
2023/06/10 10:53:05;;;;;;;8.60;8.10;;;58.70;17.60;;;;;;5072554;28;20423;-69
2023/06/10 10:55:32;;;;;;;8.57;8.00;;;58.90;17.50;;;;;;5071952;28;20467;-69
2023/06/10 10:58:08;;;;;;;7.30;6.90;;;58.00;16.90;;;;;;5072529;28;20890;-69
2023/06/10 11:00:43;;;;;;;10.13;9.53;;;58.60;18.20;;;;;;5072495;28;20762;-69
2023/06/10 11:03:13;;;;;;;8.20;7.60;;;58.30;17.00;;;;;;5072364;28;20400;-69
2023/06/10 11:05:44;;;;;;;8.70;8.20;;;58.40;17.80;;;;;;5072032;28;20933;-69
2023/06/10 11:08:11;;;;;;;8.20;7.60;;;57.80;16.70;;;;;;5072317;28;21096;-69
2023/06/10 11:10:41;;;;;;;8.47;7.37;;;56.30;16.90;;;;;;5072343;28;20818;-69
2023/06/10 11:13:13;;;;;;;8.83;8.27;;;56.40;18.70;;;;;;5072219;28;20503;-70
2023/06/10 11:15:44;;;;;;;7.67;7.17;;;57.30;18.80;;;;;;5070640;28;20531;-70
2023/06/10 11:18:27;;;;;;;7.57;7.17;;;57.20;17.50;;;;;;5072242;28;20384;-70
2023/06/10 11:20:59;;;;;;;10.03;9.33;;;56.80;17.00;;;;;;5070893;28;20439;-71
2023/06/10 11:23:30;;;;;;;8.20;7.60;;;55.90;17.60;;;;;;5072073;28;20389;-70
2023/06/10 11:26:20;;;;;;;7.80;7.13;;;56.30;18.00;;;;;;5071908;28;20937;-70
2023/06/10 11:28:46;;;;;;;8.17;7.60;;;55.90;17.50;;;;;;5072146;28;20482;-69
2023/06/10 11:31:30;;;;;;;8.00;7.50;;;56.00;18.20;;;;;;5072050;28;20400;-70
2023/06/10 11:34:01;;;;;;;7.23;6.73;;;54.30;18.40;;;;;;5071924;28;20343;-69
2023/06/10 11:36:28;;;;;;;7.23;6.83;;;52.20;19.10;;;;;;5071881;28;20416;-69
2023/06/10 11:38:56;;;;;;;6.73;6.23;;;50.90;20.10;;;;;;5071820;28;20458;-70
2023/06/10 11:41:25;;;;;;;6.60;6.20;;;51.50;20.30;;;;;;5071955;28;20458;-69
2023/06/10 11:43:51;;;;;;;7.93;7.43;;;50.70;19.90;;;;;;5071868;28;20412;-70
2023/06/10 11:46:17;;;;;;;7.60;7.00;;;49.20;20.40;;;;;;5071689;28;20439;-69
2023/06/10 11:48:54;;;;;;;8.20;7.50;;;47.80;21.20;;;;;;5071854;28;20408;-68
2023/06/10 11:51:20;;;;;;;8.17;7.57;;;46.60;22.00;;;;;;5071825;28;20177;-68
2023/06/10 11:53:47;;;;;;;6.60;6.10;;;45.90;23.00;;;;;;5071475;28;20442;-69
2023/06/10 11:56:13;;;;;;;7.73;7.07;;;46.70;23.30;;;;;;5071573;28;20406;-69
2023/06/10 11:58:43;;;;;;;7.60;6.30;;;46.70;23.00;;;;;;5071840;28;20718;-68
2023/06/10 12:01:09;;;;;;;7.13;6.63;;;46.00;22.80;;;;;;5071831;28;20629;-68
2023/06/10 12:03:38;;;;;;;9.27;8.40;;;45.20;23.30;;;;;;5071647;28;20394;-68
2023/06/10 12:06:07;;;;;;;8.43;7.63;;;44.50;23.50;;;;;;5071568;28;20194;-68
2023/06/10 12:08:40;;;;;;;7.57;6.50;;;43.60;24.20;;;;;;5071325;28;20387;-68
2023/06/10 12:11:06;;;;;;;7.90;7.10;;;42.90;24.80;;;;;;5071804;28;20466;-68
2023/06/10 12:13:32;;;;;;;7.60;7.10;;;42.50;25.70;;;;;;5071515;28;20803;-68
2023/06/10 12:16:08;;;;;;;7.07;6.57;;;42.50;26.10;;;;;;5071180;28;20721;-69
2023/06/10 12:18:34;;;;;;;7.17;6.67;;;42.40;25.70;;;;;;5071522;28;20168;-68
2023/06/10 12:21:00;;;;;;;6.93;6.43;;;42.40;25.90;;;;;;5070295;28;20432;-69
2023/06/10 12:23:25;;;;;;;8.80;8.00;;;42.50;25.70;;;;;;5071573;28;20542;-68
2023/06/10 12:25:54;;;;;;;9.10;6.60;;;42.50;25.20;;;;;;5071566;28;20186;-68
2023/06/10 12:28:24;;;;;;;8.03;7.20;;;42.00;25.00;;;;;;5075323;28;20246;-68
2023/06/10 12:30:50;;;;;;;7.60;7.00;;;41.90;25.20;;;;;;5073985;28;20499;-68
2023/06/10 12:33:20;;;;;;;8.40;7.80;;;42.70;25.50;;;;;;5075416;28;20830;-68
2023/06/10 12:35:50;;;;;;;7.20;6.67;;;44.00;25.40;;;;;;5074907;28;20196;-68
2023/06/10 12:38:27;;;;;;;6.30;5.80;;;44.80;24.20;;;;;;5075163;28;20868;-68
2023/06/10 12:40:53;;;;;;;6.20;5.80;;;45.50;23.50;;;;;;5075011;28;20367;-69
2023/06/10 12:43:22;;;;;;;7.63;7.03;;;44.90;22.70;;;;;;5075278;28;20371;-68
2023/06/10 12:45:50;;;;;;;6.23;5.73;;;45.20;22.60;;;;;;5074716;28;20424;-69